sensor_id;sensor_type;location;lat;lon;timestamp;P1;durP1;ratioP1;P2;durP2;ratioP2
16922;SDS011;8578;50.938;13.556;2023-08-21T00:00:11;8.17;;;4.47;;
16922;SDS011;8578;50.938;13.556;2023-08-21T00:02:39;12.07;;;5.30;;
16922;SDS011;8578;50.938;13.556;2023-08-21T00:05:07;9.47;;;4.90;;
16922;SDS011;8578;50.938;13.556;2023-08-21T00:07:35;7.37;;;4.90;;
16922;SDS011;8578;50.938;13.556;2023-08-21T00:10:04;7.53;;;4.87;;
16922;SDS011;8578;50.938;13.556;2023-08-21T00:12:31;7.27;;;4.90;;
16922;SDS011;8578;50.938;13.556;2023-08-21T00:14:59;6.47;;;4.50;;
16922;SDS011;8578;50.938;13.556;2023-08-21T00:17:28;7.10;;;4.97;;
16922;SDS011;8578;50.938;13.556;2023-08-21T00:19:55;9.93;;;4.97;;
16922;SDS011;8578;50.938;13.556;2023-08-21T00:22:24;7.87;;;4.50;;
16922;SDS011;8578;50.938;13.556;2023-08-21T00:24:52;12.33;;;5.00;;
16922;SDS011;8578;50.938;13.556;2023-08-21T00:27:20;9.87;;;4.30;;
16922;SDS011;8578;50.938;13.556;2023-08-21T00:29:48;9.17;;;4.77;;
16922;SDS011;8578;50.938;13.556;2023-08-21T00:32:15;19.40;;;5.27;;
16922;SDS011;8578;50.938;13.556;2023-08-21T00:34:45;6.13;;;4.67;;
16922;SDS011;8578;50.938;13.556;2023-08-21T00:37:13;6.13;;;4.43;;
16922;SDS011;8578;50.938;13.556;2023-08-21T00:39:42;12.63;;;4.80;;
16922;SDS011;8578;50.938;13.556;2023-08-21T00:42:09;7.70;;;4.57;;
16922;SDS011;8578;50.938;13.556;2023-08-21T00:44:37;8.07;;;4.83;;
16922;SDS011;8578;50.938;13.556;2023-08-21T00:47:05;9.53;;;4.67;;
16922;SDS011;8578;50.938;13.556;2023-08-21T00:49:34;6.27;;;4.87;;
16922;SDS011;8578;50.938;13.556;2023-08-21T00:52:05;7.43;;;4.80;;
16922;SDS011;8578;50.938;13.556;2023-08-21T00:54:34;6.30;;;4.67;;
16922;SDS011;8578;50.938;13.556;2023-08-21T00:57:01;8.63;;;5.40;;
16922;SDS011;8578;50.938;13.556;2023-08-21T00:59:31;6.37;;;4.83;;
16922;SDS011;8578;50.938;13.556;2023-08-21T01:01:58;10.80;;;4.67;;
16922;SDS011;8578;50.938;13.556;2023-08-21T01:04:26;13.60;;;4.83;;
16922;SDS011;8578;50.938;13.556;2023-08-21T01:06:54;10.60;;;5.10;;
16922;SDS011;8578;50.938;13.556;2023-08-21T01:09:24;14.90;;;5.23;;
16922;SDS011;8578;50.938;13.556;2023-08-21T01:11:54;9.23;;;5.77;;
16922;SDS011;8578;50.938;13.556;2023-08-21T01:14:27;9.73;;;4.87;;
16922;SDS011;8578;50.938;13.556;2023-08-21T01:16:55;12.17;;;5.20;;
16922;SDS011;8578;50.938;13.556;2023-08-21T01:19:26;8.63;;;4.47;;
16922;SDS011;8578;50.938;13.556;2023-08-21T01:21:57;11.37;;;5.00;;
16922;SDS011;8578;50.938;13.556;2023-08-21T01:24:27;5.87;;;5.10;;
16922;SDS011;8578;50.938;13.556;2023-08-21T01:26:55;6.77;;;5.00;;
16922;SDS011;8578;50.938;13.556;2023-08-21T01:29:22;8.57;;;5.27;;
16922;SDS011;8578;50.938;13.556;2023-08-21T01:31:50;8.97;;;5.20;;
16922;SDS011;8578;50.938;13.556;2023-08-21T01:34:21;7.10;;;5.40;;
16922;SDS011;8578;50.938;13.556;2023-08-21T01:36:49;11.23;;;6.03;;
16922;SDS011;8578;50.938;13.556;2023-08-21T01:39:17;7.63;;;4.97;;
16922;SDS011;8578;50.938;13.556;2023-08-21T01:41:46;6.73;;;5.30;;
16922;SDS011;8578;50.938;13.556;2023-08-21T01:44:14;7.27;;;4.77;;
16922;SDS011;8578;50.938;13.556;2023-08-21T01:46:41;7.10;;;5.30;;
16922;SDS011;8578;50.938;13.556;2023-08-21T01:49:09;7.63;;;5.23;;
16922;SDS011;8578;50.938;13.556;2023-08-21T01:51:36;7.87;;;5.60;;
16922;SDS011;8578;50.938;13.556;2023-08-21T01:54:04;7.17;;;4.87;;
16922;SDS011;8578;50.938;13.556;2023-08-21T01:56:31;6.87;;;5.27;;
16922;SDS011;8578;50.938;13.556;2023-08-21T01:59:00;7.83;;;5.30;;
16922;SDS011;8578;50.938;13.556;2023-08-21T02:01:28;13.57;;;5.73;;
16922;SDS011;8578;50.938;13.556;2023-08-21T02:03:56;14.33;;;5.43;;
16922;SDS011;8578;50.938;13.556;2023-08-21T02:06:23;9.17;;;5.20;;
16922;SDS011;8578;50.938;13.556;2023-08-21T02:08:51;9.47;;;4.97;;
16922;SDS011;8578;50.938;13.556;2023-08-21T02:11:19;10.67;;;4.57;;
16922;SDS011;8578;50.938;13.556;2023-08-21T02:13:47;10.00;;;4.83;;
16922;SDS011;8578;50.938;13.556;2023-08-21T02:16:16;12.10;;;5.17;;
16922;SDS011;8578;50.938;13.556;2023-08-21T02:18:44;8.17;;;5.13;;
16922;SDS011;8578;50.938;13.556;2023-08-21T02:21:11;8.37;;;5.50;;
16922;SDS011;8578;50.938;13.556;2023-08-21T02:23:40;6.23;;;5.07;;
16922;SDS011;8578;50.938;13.556;2023-08-21T02:26:09;6.37;;;4.60;;
16922;SDS011;8578;50.938;13.556;2023-08-21T02:28:38;9.33;;;4.73;;
16922;SDS011;8578;50.938;13.556;2023-08-21T02:31:08;6.83;;;4.53;;
16922;SDS011;8578;50.938;13.556;2023-08-21T02:33:37;9.30;;;5.07;;
16922;SDS011;8578;50.938;13.556;2023-08-21T02:36:05;8.83;;;5.33;;
16922;SDS011;8578;50.938;13.556;2023-08-21T02:38:34;8.70;;;4.90;;
16922;SDS011;8578;50.938;13.556;2023-08-21T02:41:03;8.27;;;4.77;;
16922;SDS011;8578;50.938;13.556;2023-08-21T02:43:30;7.50;;;5.10;;
16922;SDS011;8578;50.938;13.556;2023-08-21T02:45:58;11.60;;;5.80;;
16922;SDS011;8578;50.938;13.556;2023-08-21T02:48:26;16.87;;;5.50;;
16922;SDS011;8578;50.938;13.556;2023-08-21T02:50:55;11.83;;;5.53;;
16922;SDS011;8578;50.938;13.556;2023-08-21T02:53:23;15.33;;;5.43;;
16922;SDS011;8578;50.938;13.556;2023-08-21T02:55:52;13.80;;;5.40;;
16922;SDS011;8578;50.938;13.556;2023-08-21T02:58:20;7.77;;;4.23;;
16922;SDS011;8578;50.938;13.556;2023-08-21T03:00:48;7.83;;;4.53;;
16922;SDS011;8578;50.938;13.556;2023-08-21T03:03:16;8.50;;;4.67;;
16922;SDS011;8578;50.938;13.556;2023-08-21T03:05:44;7.30;;;4.33;;
16922;SDS011;8578;50.938;13.556;2023-08-21T03:08:12;5.60;;;4.37;;
16922;SDS011;8578;50.938;13.556;2023-08-21T03:10:40;11.83;;;4.63;;
16922;SDS011;8578;50.938;13.556;2023-08-21T03:13:08;7.07;;;4.37;;
16922;SDS011;8578;50.938;13.556;2023-08-21T03:15:35;5.17;;;4.10;;
16922;SDS011;8578;50.938;13.556;2023-08-21T03:18:03;5.07;;;4.50;;
16922;SDS011;8578;50.938;13.556;2023-08-21T03:20:32;8.00;;;4.97;;
16922;SDS011;8578;50.938;13.556;2023-08-21T03:22:59;9.63;;;5.00;;
16922;SDS011;8578;50.938;13.556;2023-08-21T03:25:28;10.57;;;4.80;;
16922;SDS011;8578;50.938;13.556;2023-08-21T03:27:56;7.10;;;4.83;;
16922;SDS011;8578;50.938;13.556;2023-08-21T03:30:24;5.93;;;5.10;;
16922;SDS011;8578;50.938;13.556;2023-08-21T03:32:51;7.87;;;4.50;;
16922;SDS011;8578;50.938;13.556;2023-08-21T03:35:20;11.17;;;4.70;;
16922;SDS011;8578;50.938;13.556;2023-08-21T03:37:48;8.43;;;4.70;;
16922;SDS011;8578;50.938;13.556;2023-08-21T03:40:16;6.90;;;4.90;;
16922;SDS011;8578;50.938;13.556;2023-08-21T03:42:46;10.70;;;4.93;;
16922;SDS011;8578;50.938;13.556;2023-08-21T03:45:13;6.50;;;4.93;;
16922;SDS011;8578;50.938;13.556;2023-08-21T03:47:41;8.00;;;5.40;;
16922;SDS011;8578;50.938;13.556;2023-08-21T03:50:15;7.75;;;4.55;;
16922;SDS011;8578;50.938;13.556;2023-08-21T03:52:43;7.30;;;4.47;;
16922;SDS011;8578;50.938;13.556;2023-08-21T03:55:10;9.10;;;5.10;;
16922;SDS011;8578;50.938;13.556;2023-08-21T03:57:39;9.50;;;4.83;;
16922;SDS011;8578;50.938;13.556;2023-08-21T04:00:08;6.80;;;5.07;;
16922;SDS011;8578;50.938;13.556;2023-08-21T04:02:45;6.43;;;4.60;;
16922;SDS011;8578;50.938;13.556;2023-08-21T04:05:13;5.57;;;3.90;;
16922;SDS011;8578;50.938;13.556;2023-08-21T04:07:43;7.57;;;4.50;;
16922;SDS011;8578;50.938;13.556;2023-08-21T04:10:10;6.23;;;4.13;;
16922;SDS011;8578;50.938;13.556;2023-08-21T04:12:38;7.43;;;4.27;;
16922;SDS011;8578;50.938;13.556;2023-08-21T04:15:09;8.07;;;4.30;;
16922;SDS011;8578;50.938;13.556;2023-08-21T04:17:37;6.43;;;4.97;;
16922;SDS011;8578;50.938;13.556;2023-08-21T04:20:05;10.83;;;4.83;;
16922;SDS011;8578;50.938;13.556;2023-08-21T04:22:33;4.60;;;4.20;;
16922;SDS011;8578;50.938;13.556;2023-08-21T04:25:01;5.30;;;4.80;;
16922;SDS011;8578;50.938;13.556;2023-08-21T04:27:28;6.57;;;4.37;;
16922;SDS011;8578;50.938;13.556;2023-08-21T04:29:56;6.73;;;4.80;;
16922;SDS011;8578;50.938;13.556;2023-08-21T04:32:25;8.33;;;4.83;;
16922;SDS011;8578;50.938;13.556;2023-08-21T04:34:53;6.63;;;5.17;;
16922;SDS011;8578;50.938;13.556;2023-08-21T04:37:22;8.20;;;4.57;;
16922;SDS011;8578;50.938;13.556;2023-08-21T04:39:50;6.07;;;4.93;;
16922;SDS011;8578;50.938;13.556;2023-08-21T04:42:18;6.33;;;4.57;;
16922;SDS011;8578;50.938;13.556;2023-08-21T04:44:46;6.00;;;4.63;;
16922;SDS011;8578;50.938;13.556;2023-08-21T04:47:19;7.60;;;5.13;;
16922;SDS011;8578;50.938;13.556;2023-08-21T04:49:50;6.60;;;4.60;;
16922;SDS011;8578;50.938;13.556;2023-08-21T04:52:18;5.87;;;4.73;;
16922;SDS011;8578;50.938;13.556;2023-08-21T04:54:46;6.60;;;4.80;;
16922;SDS011;8578;50.938;13.556;2023-08-21T04:57:15;6.40;;;5.07;;
16922;SDS011;8578;50.938;13.556;2023-08-21T04:59:43;10.73;;;5.10;;
16922;SDS011;8578;50.938;13.556;2023-08-21T05:02:11;12.13;;;4.80;;
16922;SDS011;8578;50.938;13.556;2023-08-21T05:04:40;10.90;;;5.20;;
16922;SDS011;8578;50.938;13.556;2023-08-21T05:07:09;10.57;;;5.30;;
16922;SDS011;8578;50.938;13.556;2023-08-21T05:09:37;10.60;;;4.83;;
16922;SDS011;8578;50.938;13.556;2023-08-21T05:12:07;6.93;;;4.60;;
16922;SDS011;8578;50.938;13.556;2023-08-21T05:14:34;6.50;;;5.20;;
16922;SDS011;8578;50.938;13.556;2023-08-21T05:17:03;7.93;;;5.37;;
16922;SDS011;8578;50.938;13.556;2023-08-21T05:19:30;8.27;;;5.07;;
16922;SDS011;8578;50.938;13.556;2023-08-21T05:21:58;6.10;;;5.17;;
16922;SDS011;8578;50.938;13.556;2023-08-21T05:24:30;5.70;;;5.10;;
16922;SDS011;8578;50.938;13.556;2023-08-21T05:27:02;8.47;;;5.53;;
16922;SDS011;8578;50.938;13.556;2023-08-21T05:29:31;7.20;;;5.47;;
16922;SDS011;8578;50.938;13.556;2023-08-21T05:31:58;7.57;;;5.17;;
16922;SDS011;8578;50.938;13.556;2023-08-21T05:34:27;6.90;;;5.17;;
16922;SDS011;8578;50.938;13.556;2023-08-21T05:36:55;7.93;;;5.47;;
16922;SDS011;8578;50.938;13.556;2023-08-21T05:39:24;6.30;;;5.43;;
16922;SDS011;8578;50.938;13.556;2023-08-21T05:41:54;6.53;;;5.57;;
16922;SDS011;8578;50.938;13.556;2023-08-21T05:44:21;9.17;;;5.70;;
16922;SDS011;8578;50.938;13.556;2023-08-21T05:46:49;8.03;;;5.73;;
16922;SDS011;8578;50.938;13.556;2023-08-21T05:49:17;9.70;;;6.13;;
16922;SDS011;8578;50.938;13.556;2023-08-21T05:51:46;7.57;;;6.50;;
16922;SDS011;8578;50.938;13.556;2023-08-21T05:54:14;11.07;;;6.63;;
16922;SDS011;8578;50.938;13.556;2023-08-21T05:56:42;11.00;;;6.30;;
16922;SDS011;8578;50.938;13.556;2023-08-21T05:59:20;8.77;;;6.30;;
16922;SDS011;8578;50.938;13.556;2023-08-21T06:01:54;8.77;;;6.73;;
16922;SDS011;8578;50.938;13.556;2023-08-21T06:04:22;10.07;;;6.73;;
16922;SDS011;8578;50.938;13.556;2023-08-21T06:06:56;7.60;;;6.23;;
16922;SDS011;8578;50.938;13.556;2023-08-21T06:09:23;7.20;;;6.47;;
16922;SDS011;8578;50.938;13.556;2023-08-21T06:11:51;8.77;;;6.57;;
16922;SDS011;8578;50.938;13.556;2023-08-21T06:14:20;8.47;;;6.00;;
16922;SDS011;8578;50.938;13.556;2023-08-21T06:16:59;9.20;;;6.57;;
16922;SDS011;8578;50.938;13.556;2023-08-21T06:19:28;9.50;;;6.50;;
16922;SDS011;8578;50.938;13.556;2023-08-21T06:21:55;8.03;;;6.60;;
16922;SDS011;8578;50.938;13.556;2023-08-21T06:24:23;13.10;;;6.70;;
16922;SDS011;8578;50.938;13.556;2023-08-21T06:26:55;7.53;;;6.70;;
16922;SDS011;8578;50.938;13.556;2023-08-21T06:29:25;8.07;;;6.50;;
16922;SDS011;8578;50.938;13.556;2023-08-21T06:31:54;7.20;;;5.93;;
16922;SDS011;8578;50.938;13.556;2023-08-21T06:34:22;8.67;;;6.70;;
16922;SDS011;8578;50.938;13.556;2023-08-21T06:36:50;9.50;;;6.00;;
16922;SDS011;8578;50.938;13.556;2023-08-21T06:39:17;7.27;;;5.93;;
16922;SDS011;8578;50.938;13.556;2023-08-21T06:41:45;8.67;;;5.73;;
16922;SDS011;8578;50.938;13.556;2023-08-21T06:44:17;14.27;;;6.17;;
16922;SDS011;8578;50.938;13.556;2023-08-21T06:46:47;6.17;;;5.37;;
16922;SDS011;8578;50.938;13.556;2023-08-21T06:49:15;10.27;;;6.10;;
16922;SDS011;8578;50.938;13.556;2023-08-21T06:51:42;6.70;;;5.70;;
16922;SDS011;8578;50.938;13.556;2023-08-21T06:54:10;6.40;;;5.67;;
16922;SDS011;8578;50.938;13.556;2023-08-21T06:56:38;9.03;;;5.83;;
16922;SDS011;8578;50.938;13.556;2023-08-21T06:59:06;8.23;;;5.80;;
16922;SDS011;8578;50.938;13.556;2023-08-21T07:01:33;8.20;;;5.60;;
16922;SDS011;8578;50.938;13.556;2023-08-21T07:04:03;10.00;;;6.33;;
16922;SDS011;8578;50.938;13.556;2023-08-21T07:06:31;10.60;;;6.57;;
16922;SDS011;8578;50.938;13.556;2023-08-21T07:08:59;12.30;;;6.03;;
16922;SDS011;8578;50.938;13.556;2023-08-21T07:11:27;6.67;;;5.93;;
16922;SDS011;8578;50.938;13.556;2023-08-21T07:13:54;10.70;;;6.00;;
16922;SDS011;8578;50.938;13.556;2023-08-21T07:16:22;7.80;;;5.87;;
16922;SDS011;8578;50.938;13.556;2023-08-21T07:18:49;7.50;;;6.07;;
16922;SDS011;8578;50.938;13.556;2023-08-21T07:21:21;7.90;;;6.20;;
16922;SDS011;8578;50.938;13.556;2023-08-21T07:23:59;7.23;;;6.53;;
16922;SDS011;8578;50.938;13.556;2023-08-21T07:26:26;9.97;;;5.63;;
16922;SDS011;8578;50.938;13.556;2023-08-21T07:28:55;7.53;;;6.07;;
16922;SDS011;8578;50.938;13.556;2023-08-21T07:31:24;6.73;;;5.20;;
16922;SDS011;8578;50.938;13.556;2023-08-21T07:33:51;9.50;;;5.70;;
16922;SDS011;8578;50.938;13.556;2023-08-21T07:36:24;8.93;;;5.60;;
16922;SDS011;8578;50.938;13.556;2023-08-21T07:38:51;6.23;;;5.10;;
16922;SDS011;8578;50.938;13.556;2023-08-21T07:41:19;8.37;;;5.50;;
16922;SDS011;8578;50.938;13.556;2023-08-21T07:43:46;8.03;;;5.23;;
16922;SDS011;8578;50.938;13.556;2023-08-21T07:46:14;9.87;;;5.00;;
16922;SDS011;8578;50.938;13.556;2023-08-21T07:48:45;8.43;;;5.00;;
16922;SDS011;8578;50.938;13.556;2023-08-21T07:51:12;5.17;;;4.43;;
16922;SDS011;8578;50.938;13.556;2023-08-21T07:53:42;5.93;;;4.63;;
16922;SDS011;8578;50.938;13.556;2023-08-21T07:56:09;5.73;;;4.33;;
16922;SDS011;8578;50.938;13.556;2023-08-21T07:58:37;6.23;;;4.30;;
16922;SDS011;8578;50.938;13.556;2023-08-21T08:01:05;6.53;;;4.57;;
16922;SDS011;8578;50.938;13.556;2023-08-21T08:03:34;7.67;;;4.77;;
16922;SDS011;8578;50.938;13.556;2023-08-21T08:06:01;6.33;;;4.47;;
16922;SDS011;8578;50.938;13.556;2023-08-21T08:08:30;7.13;;;5.27;;
16922;SDS011;8578;50.938;13.556;2023-08-21T08:11:01;7.97;;;4.77;;
16922;SDS011;8578;50.938;13.556;2023-08-21T08:13:29;5.87;;;5.10;;
16922;SDS011;8578;50.938;13.556;2023-08-21T08:15:56;6.30;;;4.97;;
16922;SDS011;8578;50.938;13.556;2023-08-21T08:18:25;12.20;;;5.30;;
16922;SDS011;8578;50.938;13.556;2023-08-21T08:20:53;11.07;;;4.90;;
16922;SDS011;8578;50.938;13.556;2023-08-21T08:23:21;7.70;;;4.87;;
16922;SDS011;8578;50.938;13.556;2023-08-21T08:25:49;5.60;;;4.80;;
16922;SDS011;8578;50.938;13.556;2023-08-21T08:28:19;6.37;;;4.67;;
16922;SDS011;8578;50.938;13.556;2023-08-21T08:30:46;6.07;;;4.97;;
16922;SDS011;8578;50.938;13.556;2023-08-21T08:33:14;5.70;;;5.07;;
16922;SDS011;8578;50.938;13.556;2023-08-21T08:35:42;7.63;;;4.60;;
16922;SDS011;8578;50.938;13.556;2023-08-21T08:38:09;6.03;;;5.20;;
16922;SDS011;8578;50.938;13.556;2023-08-21T08:40:38;6.43;;;5.43;;
16922;SDS011;8578;50.938;13.556;2023-08-21T08:43:06;8.10;;;5.17;;
16922;SDS011;8578;50.938;13.556;2023-08-21T08:45:35;5.97;;;4.93;;
16922;SDS011;8578;50.938;13.556;2023-08-21T08:48:05;8.20;;;5.07;;
16922;SDS011;8578;50.938;13.556;2023-08-21T08:50:33;9.47;;;5.07;;
16922;SDS011;8578;50.938;13.556;2023-08-21T08:53:01;6.50;;;5.07;;
16922;SDS011;8578;50.938;13.556;2023-08-21T08:55:42;7.27;;;5.13;;
16922;SDS011;8578;50.938;13.556;2023-08-21T08:58:09;6.47;;;5.37;;
16922;SDS011;8578;50.938;13.556;2023-08-21T09:00:38;7.67;;;5.23;;
16922;SDS011;8578;50.938;13.556;2023-08-21T09:03:07;6.93;;;5.27;;
16922;SDS011;8578;50.938;13.556;2023-08-21T09:05:35;6.80;;;5.30;;
16922;SDS011;8578;50.938;13.556;2023-08-21T09:08:03;6.33;;;5.27;;
16922;SDS011;8578;50.938;13.556;2023-08-21T09:10:37;9.17;;;4.80;;
16922;SDS011;8578;50.938;13.556;2023-08-21T09:13:12;5.90;;;4.27;;
16922;SDS011;8578;50.938;13.556;2023-08-21T09:15:42;9.70;;;5.10;;
16922;SDS011;8578;50.938;13.556;2023-08-21T09:18:11;5.13;;;4.20;;
16922;SDS011;8578;50.938;13.556;2023-08-21T09:20:40;5.53;;;4.90;;
16922;SDS011;8578;50.938;13.556;2023-08-21T09:23:07;6.50;;;4.80;;
16922;SDS011;8578;50.938;13.556;2023-08-21T09:25:35;5.23;;;4.70;;
16922;SDS011;8578;50.938;13.556;2023-08-21T09:28:04;6.87;;;4.80;;
16922;SDS011;8578;50.938;13.556;2023-08-21T09:30:47;6.23;;;4.73;;
16922;SDS011;8578;50.938;13.556;2023-08-21T09:33:19;7.47;;;4.97;;
16922;SDS011;8578;50.938;13.556;2023-08-21T09:35:48;6.60;;;4.63;;
16922;SDS011;8578;50.938;13.556;2023-08-21T09:38:15;6.33;;;4.40;;
16922;SDS011;8578;50.938;13.556;2023-08-21T09:40:49;7.87;;;4.60;;
16922;SDS011;8578;50.938;13.556;2023-08-21T09:43:17;6.27;;;4.47;;
16922;SDS011;8578;50.938;13.556;2023-08-21T09:45:47;5.43;;;4.10;;
16922;SDS011;8578;50.938;13.556;2023-08-21T09:48:14;6.37;;;4.10;;
16922;SDS011;8578;50.938;13.556;2023-08-21T09:50:42;6.67;;;4.43;;
16922;SDS011;8578;50.938;13.556;2023-08-21T09:53:12;5.93;;;4.83;;
16922;SDS011;8578;50.938;13.556;2023-08-21T09:55:40;5.43;;;4.77;;
16922;SDS011;8578;50.938;13.556;2023-08-21T09:58:10;8.43;;;4.93;;
16922;SDS011;8578;50.938;13.556;2023-08-21T10:00:38;6.30;;;4.27;;
16922;SDS011;8578;50.938;13.556;2023-08-21T10:03:07;11.77;;;4.67;;
16922;SDS011;8578;50.938;13.556;2023-08-21T10:05:37;5.57;;;4.87;;
16922;SDS011;8578;50.938;13.556;2023-08-21T10:08:06;5.57;;;4.30;;
16922;SDS011;8578;50.938;13.556;2023-08-21T10:10:34;7.47;;;4.87;;
16922;SDS011;8578;50.938;13.556;2023-08-21T10:13:02;7.03;;;4.63;;
16922;SDS011;8578;50.938;13.556;2023-08-21T10:15:30;6.03;;;4.20;;
16922;SDS011;8578;50.938;13.556;2023-08-21T10:17:58;6.47;;;4.50;;
16922;SDS011;8578;50.938;13.556;2023-08-21T10:20:46;9.17;;;4.23;;
16922;SDS011;8578;50.938;13.556;2023-08-21T10:23:24;6.93;;;4.10;;
16922;SDS011;8578;50.938;13.556;2023-08-21T10:25:55;6.57;;;4.23;;
16922;SDS011;8578;50.938;13.556;2023-08-21T10:28:40;5.77;;;4.50;;
16922;SDS011;8578;50.938;13.556;2023-08-21T10:33:51;5.63;;;4.20;;
16922;SDS011;8578;50.938;13.556;2023-08-21T10:39:05;4.67;;;3.80;;
16922;SDS011;8578;50.938;13.556;2023-08-21T10:41:39;6.10;;;4.00;;
16922;SDS011;8578;50.938;13.556;2023-08-21T10:44:07;6.73;;;4.50;;
16922;SDS011;8578;50.938;13.556;2023-08-21T10:46:50;7.10;;;4.93;;
16922;SDS011;8578;50.938;13.556;2023-08-21T10:49:18;9.27;;;4.13;;
16922;SDS011;8578;50.938;13.556;2023-08-21T10:51:46;4.10;;;3.37;;
16922;SDS011;8578;50.938;13.556;2023-08-21T10:54:15;4.70;;;3.80;;
16922;SDS011;8578;50.938;13.556;2023-08-21T10:56:43;5.43;;;3.80;;
16922;SDS011;8578;50.938;13.556;2023-08-21T10:59:10;4.57;;;3.90;;
16922;SDS011;8578;50.938;13.556;2023-08-21T11:01:43;6.70;;;4.57;;
16922;SDS011;8578;50.938;13.556;2023-08-21T11:04:12;7.07;;;4.33;;
16922;SDS011;8578;50.938;13.556;2023-08-21T11:06:40;4.80;;;3.93;;
16922;SDS011;8578;50.938;13.556;2023-08-21T11:09:12;6.03;;;4.07;;
16922;SDS011;8578;50.938;13.556;2023-08-21T11:11:41;7.47;;;4.07;;
16922;SDS011;8578;50.938;13.556;2023-08-21T11:14:11;4.90;;;4.30;;
16922;SDS011;8578;50.938;13.556;2023-08-21T11:16:39;4.50;;;3.90;;
16922;SDS011;8578;50.938;13.556;2023-08-21T11:19:08;4.83;;;4.07;;
16922;SDS011;8578;50.938;13.556;2023-08-21T11:21:36;8.93;;;3.87;;
16922;SDS011;8578;50.938;13.556;2023-08-21T11:24:03;4.80;;;3.67;;
16922;SDS011;8578;50.938;13.556;2023-08-21T11:26:32;6.03;;;4.27;;
16922;SDS011;8578;50.938;13.556;2023-08-21T11:29:01;8.30;;;4.20;;
16922;SDS011;8578;50.938;13.556;2023-08-21T11:31:30;4.50;;;3.90;;
16922;SDS011;8578;50.938;13.556;2023-08-21T11:33:58;8.00;;;4.27;;
16922;SDS011;8578;50.938;13.556;2023-08-21T11:36:44;6.80;;;4.00;;
16922;SDS011;8578;50.938;13.556;2023-08-21T11:39:13;4.23;;;3.60;;
16922;SDS011;8578;50.938;13.556;2023-08-21T11:41:54;7.13;;;3.93;;
16922;SDS011;8578;50.938;13.556;2023-08-21T11:44:23;4.37;;;3.70;;
16922;SDS011;8578;50.938;13.556;2023-08-21T11:46:51;5.40;;;4.00;;
16922;SDS011;8578;50.938;13.556;2023-08-21T11:49:19;4.80;;;4.00;;
16922;SDS011;8578;50.938;13.556;2023-08-21T11:51:49;6.03;;;4.10;;
16922;SDS011;8578;50.938;13.556;2023-08-21T11:54:18;4.57;;;3.70;;
16922;SDS011;8578;50.938;13.556;2023-08-21T11:56:46;4.83;;;3.70;;
16922;SDS011;8578;50.938;13.556;2023-08-21T11:59:21;9.57;;;4.53;;
16922;SDS011;8578;50.938;13.556;2023-08-21T12:01:50;4.17;;;3.67;;
16922;SDS011;8578;50.938;13.556;2023-08-21T12:04:19;5.70;;;4.00;;
16922;SDS011;8578;50.938;13.556;2023-08-21T12:06:48;4.60;;;3.83;;
16922;SDS011;8578;50.938;13.556;2023-08-21T12:09:16;4.83;;;3.97;;
16922;SDS011;8578;50.938;13.556;2023-08-21T12:11:51;3.73;;;3.43;;
16922;SDS011;8578;50.938;13.556;2023-08-21T12:14:19;4.97;;;3.40;;
16922;SDS011;8578;50.938;13.556;2023-08-21T12:16:47;6.77;;;4.00;;
16922;SDS011;8578;50.938;13.556;2023-08-21T12:19:17;4.97;;;3.90;;
16922;SDS011;8578;50.938;13.556;2023-08-21T12:21:47;5.83;;;3.83;;
16922;SDS011;8578;50.938;13.556;2023-08-21T12:24:15;5.70;;;3.63;;
16922;SDS011;8578;50.938;13.556;2023-08-21T12:26:44;6.27;;;3.60;;
16922;SDS011;8578;50.938;13.556;2023-08-21T12:29:17;6.90;;;3.67;;
16922;SDS011;8578;50.938;13.556;2023-08-21T12:31:46;5.07;;;3.60;;
16922;SDS011;8578;50.938;13.556;2023-08-21T12:34:14;3.97;;;3.17;;
16922;SDS011;8578;50.938;13.556;2023-08-21T12:36:43;4.90;;;3.50;;
16922;SDS011;8578;50.938;13.556;2023-08-21T12:39:11;4.37;;;3.70;;
16922;SDS011;8578;50.938;13.556;2023-08-21T12:41:38;7.97;;;3.90;;
16922;SDS011;8578;50.938;13.556;2023-08-21T12:44:06;12.53;;;4.03;;
16922;SDS011;8578;50.938;13.556;2023-08-21T12:46:35;5.47;;;3.80;;
16922;SDS011;8578;50.938;13.556;2023-08-21T12:49:03;5.93;;;3.60;;
16922;SDS011;8578;50.938;13.556;2023-08-21T12:51:31;5.10;;;3.50;;
16922;SDS011;8578;50.938;13.556;2023-08-21T12:54:00;6.63;;;3.77;;
16922;SDS011;8578;50.938;13.556;2023-08-21T12:56:29;4.90;;;3.70;;
16922;SDS011;8578;50.938;13.556;2023-08-21T12:58:56;8.60;;;3.80;;
16922;SDS011;8578;50.938;13.556;2023-08-21T13:01:25;6.77;;;3.70;;
16922;SDS011;8578;50.938;13.556;2023-08-21T13:03:54;5.30;;;3.47;;
16922;SDS011;8578;50.938;13.556;2023-08-21T13:06:22;5.23;;;3.63;;
16922;SDS011;8578;50.938;13.556;2023-08-21T13:08:50;4.77;;;3.73;;
16922;SDS011;8578;50.938;13.556;2023-08-21T13:11:19;5.53;;;3.30;;
16922;SDS011;8578;50.938;13.556;2023-08-21T13:13:47;5.70;;;3.77;;
16922;SDS011;8578;50.938;13.556;2023-08-21T13:16:15;3.37;;;2.97;;
16922;SDS011;8578;50.938;13.556;2023-08-21T13:18:43;5.23;;;3.30;;
16922;SDS011;8578;50.938;13.556;2023-08-21T13:21:11;4.87;;;3.70;;
16922;SDS011;8578;50.938;13.556;2023-08-21T13:23:39;5.50;;;3.60;;
16922;SDS011;8578;50.938;13.556;2023-08-21T13:26:06;5.87;;;3.97;;
16922;SDS011;8578;50.938;13.556;2023-08-21T13:28:35;6.20;;;3.90;;
16922;SDS011;8578;50.938;13.556;2023-08-21T13:31:03;5.07;;;3.83;;
16922;SDS011;8578;50.938;13.556;2023-08-21T13:33:43;6.38;;;3.83;;
16922;SDS011;8578;50.938;13.556;2023-08-21T13:36:11;8.10;;;3.65;;
16922;SDS011;8578;50.938;13.556;2023-08-21T13:38:39;5.68;;;3.67;;
16922;SDS011;8578;50.938;13.556;2023-08-21T13:41:07;5.22;;;2.92;;
16922;SDS011;8578;50.938;13.556;2023-08-21T13:43:38;4.32;;;3.22;;
16922;SDS011;8578;50.938;13.556;2023-08-21T13:46:06;3.85;;;2.90;;
16922;SDS011;8578;50.938;13.556;2023-08-21T13:48:34;9.35;;;3.00;;
16922;SDS011;8578;50.938;13.556;2023-08-21T13:51:02;3.38;;;2.80;;
16922;SDS011;8578;50.938;13.556;2023-08-21T13:53:29;5.70;;;3.20;;
16922;SDS011;8578;50.938;13.556;2023-08-21T13:55:57;3.85;;;3.20;;
16922;SDS011;8578;50.938;13.556;2023-08-21T13:58:25;4.28;;;2.83;;
16922;SDS011;8578;50.938;13.556;2023-08-21T14:00:54;3.13;;;2.65;;
16922;SDS011;8578;50.938;13.556;2023-08-21T14:03:23;3.30;;;3.00;;
16922;SDS011;8578;50.938;13.556;2023-08-21T14:05:51;5.00;;;3.13;;
16922;SDS011;8578;50.938;13.556;2023-08-21T14:08:18;6.20;;;3.17;;
16922;SDS011;8578;50.938;13.556;2023-08-21T14:10:46;5.20;;;3.00;;
16922;SDS011;8578;50.938;13.556;2023-08-21T14:13:14;4.65;;;3.30;;
16922;SDS011;8578;50.938;13.556;2023-08-21T14:15:41;5.57;;;3.45;;
16922;SDS011;8578;50.938;13.556;2023-08-21T14:18:10;3.00;;;2.63;;
16922;SDS011;8578;50.938;13.556;2023-08-21T14:20:39;5.90;;;3.67;;
16922;SDS011;8578;50.938;13.556;2023-08-21T14:23:07;18.23;;;3.80;;
16922;SDS011;8578;50.938;13.556;2023-08-21T14:25:34;4.97;;;3.25;;
16922;SDS011;8578;50.938;13.556;2023-08-21T14:28:03;3.85;;;3.28;;
16922;SDS011;8578;50.938;13.556;2023-08-21T14:30:31;6.68;;;3.20;;
16922;SDS011;8578;50.938;13.556;2023-08-21T14:32:59;4.07;;;3.17;;
16922;SDS011;8578;50.938;13.556;2023-08-21T14:35:28;5.97;;;3.50;;
16922;SDS011;8578;50.938;13.556;2023-08-21T14:37:56;19.07;;;4.50;;
16922;SDS011;8578;50.938;13.556;2023-08-21T14:40:23;7.80;;;3.42;;
16922;SDS011;8578;50.938;13.556;2023-08-21T14:42:52;4.82;;;3.42;;
16922;SDS011;8578;50.938;13.556;2023-08-21T14:45:20;8.63;;;3.43;;
16922;SDS011;8578;50.938;13.556;2023-08-21T14:47:48;5.00;;;3.27;;
16922;SDS011;8578;50.938;13.556;2023-08-21T14:50:15;3.60;;;3.20;;
16922;SDS011;8578;50.938;13.556;2023-08-21T14:52:44;5.72;;;3.40;;
16922;SDS011;8578;50.938;13.556;2023-08-21T14:55:14;6.07;;;3.25;;
16922;SDS011;8578;50.938;13.556;2023-08-21T14:57:41;7.47;;;3.25;;
16922;SDS011;8578;50.938;13.556;2023-08-21T15:00:10;10.80;;;3.45;;